Time;durP1;ratioP1;P1;durP2;ratioP2;P2;SDS_P1;SDS_P2;PMS_P1;PMS_P2;Temp;Humidity;BMP_temperature;BMP_pressure;BME280_temperature;BME280_humidity;BME280_pressure;Samples;Min_cycle;Max_cycle;Signal;HPM_P1;HPM_P2
2022/05/02 00:01:11;;;;;;;0.28;0.10;;;;;;;;;;4179717;28;20199;-35
2022/05/02 00:03:13;;;;;;;0.20;0.17;;;;;;;;;;4178674;28;20056;-35
2022/05/02 00:05:14;;;;;;;0.10;0.10;;;;;;;;;;4179126;28;20442;-36
2022/05/02 00:07:15;;;;;;;0.10;0.10;;;;;;;;;;4179354;28;20464;-35
2022/05/02 00:09:16;;;;;;;0.10;0.10;;;;;;;;;;4179027;28;20048;-35
2022/05/02 00:11:18;;;;;;;0.47;0.20;;;;;;;;;;4179157;28;20053;-35
2022/05/02 00:13:19;;;;;;;0.10;0.10;;;;;;;;;;4179061;28;20057;-35
2022/05/02 00:15:20;;;;;;;0.43;0.20;;;;;;;;;;4179327;28;20060;-34
2022/05/02 00:17:56;;;;;;;0.20;0.10;;;;;;;;;;4179045;28;20132;-35
2022/05/02 00:19:46;;;;;;;0.10;0.10;;;;;;;;;;4178799;28;20103;-35
2022/05/02 00:21:47;;;;;;;0.57;0.30;;;;;;;;;;4179459;28;20053;-35
2022/05/02 00:23:48;;;;;;;0.32;0.20;;;;;;;;;;4178849;28;20053;-35
2022/05/02 00:25:50;;;;;;;0.22;0.10;;;;;;;;;;4179025;28;20053;-35
2022/05/02 00:27:51;;;;;;;0.10;0.10;;;;;;;;;;4179292;28;20061;-35
2022/05/02 00:29:52;;;;;;;0.22;0.20;;;;;;;;;;4179001;28;20049;-35
2022/05/02 00:31:53;;;;;;;0.40;0.20;;;;;;;;;;4179094;28;20052;-35
2022/05/02 00:33:54;;;;;;;0.20;0.10;;;;;;;;;;4178660;28;20057;-35
2022/05/02 00:35:55;;;;;;;0.10;0.10;;;;;;;;;;4179000;28;20052;-35
2022/05/02 00:37:57;;;;;;;0.20;0.20;;;;;;;;;;4179056;28;20106;-35
2022/05/02 00:39:58;;;;;;;0.20;0.10;;;;;;;;;;4178912;28;20045;-35
2022/05/02 00:41:59;;;;;;;0.08;0.08;;;;;;;;;;4179113;28;20562;-34
2022/05/02 00:44:00;;;;;;;0.25;0.10;;;;;;;;;;4178786;28;20045;-35
2022/05/02 00:46:01;;;;;;;0.20;0.10;;;;;;;;;;4178998;28;20049;-35
2022/05/02 00:48:02;;;;;;;0.43;0.30;;;;;;;;;;4178740;28;20309;-35
2022/05/02 00:50:05;;;;;;;0.30;0.10;;;;;;;;;;4182431;28;20053;-35
2022/05/02 00:52:06;;;;;;;0.13;0.13;;;;;;;;;;4182360;28;20522;-35
2022/05/02 00:54:07;;;;;;;0.22;0.10;;;;;;;;;;4182363;28;20111;-35
2022/05/02 00:56:09;;;;;;;0.10;0.10;;;;;;;;;;4182366;28;20465;-35
2022/05/02 00:58:10;;;;;;;0.20;0.10;;;;;;;;;;4182029;28;20060;-35
2022/05/02 01:00:12;;;;;;;0.10;0.10;;;;;;;;;;4182070;28;20539;-35
2022/05/02 01:02:14;;;;;;;0.20;0.13;;;;;;;;;;4181857;28;20519;-35
2022/05/02 01:04:16;;;;;;;0.35;0.20;;;;;;;;;;4181876;28;20129;-35
2022/05/02 01:08:37;;;;;;;0.80;0.25;;;;;;;;;;4181808;28;20083;-35
2022/05/02 01:10:39;;;;;;;0.10;0.10;;;;;;;;;;4182232;28;20107;-35
2022/05/02 01:12:40;;;;;;;0.20;0.20;;;;;;;;;;4180841;28;20136;-35
2022/05/02 01:14:43;;;;;;;0.10;0.10;;;;;;;;;;4181853;28;20589;-35
2022/05/02 01:16:44;;;;;;;0.22;0.17;;;;;;;;;;4180721;28;20498;-35
2022/05/02 01:18:48;;;;;;;0.32;0.15;;;;;;;;;;4181231;28;20102;-35
2022/05/02 01:20:49;;;;;;;0.30;0.10;;;;;;;;;;4181708;28;20052;-35
2022/05/02 01:22:51;;;;;;;0.30;0.17;;;;;;;;;;4181807;28;20057;-35
2022/05/02 01:24:52;;;;;;;0.10;0.10;;;;;;;;;;4180374;28;20049;-35
2022/05/02 01:26:53;;;;;;;0.10;0.10;;;;;;;;;;4181740;28;20062;-35
2022/05/02 01:28:59;;;;;;;0.10;0.10;;;;;;;;;;4181632;28;20056;-35
2022/05/02 01:31:00;;;;;;;0.20;0.10;;;;;;;;;;4180340;28;20045;-35
2022/05/02 01:33:01;;;;;;;0.28;0.15;;;;;;;;;;4181458;28;20053;-35
2022/05/02 01:35:02;;;;;;;0.03;0.03;;;;;;;;;;4181534;28;20217;-35
2022/05/02 01:37:04;;;;;;;0.35;0.10;;;;;;;;;;4181545;28;20110;-35
2022/05/02 01:39:05;;;;;;;0.20;0.20;;;;;;;;;;4181690;28;20102;-35
2022/05/02 01:41:07;;;;;;;0.20;0.10;;;;;;;;;;4181374;28;20064;-35
2022/05/02 01:43:09;;;;;;;0.40;0.20;;;;;;;;;;4181382;28;20048;-35
2022/05/02 01:45:10;;;;;;;0.30;0.28;;;;;;;;;;4181615;28;20114;-35
2022/05/02 01:47:11;;;;;;;0.10;0.10;;;;;;;;;;4181703;28;20112;-35
2022/05/02 01:49:13;;;;;;;0.30;0.10;;;;;;;;;;4180909;28;20110;-35
2022/05/02 01:51:14;;;;;;;0.60;0.10;;;;;;;;;;4181778;28;20107;-35
2022/05/02 01:53:15;;;;;;;0.10;0.10;;;;;;;;;;4181287;28;20489;-35
2022/05/02 01:55:16;;;;;;;0.20;0.13;;;;;;;;;;4181273;28;20079;-35
2022/05/02 01:57:17;;;;;;;0.50;0.30;;;;;;;;;;4181269;28;20134;-35
2022/05/02 01:59:19;;;;;;;0.70;0.15;;;;;;;;;;4180961;28;20114;-34
2022/05/02 02:01:20;;;;;;;0.10;0.10;;;;;;;;;;4181477;28;20059;-35
2022/05/02 02:03:21;;;;;;;0.15;0.15;;;;;;;;;;4180558;28;20473;-34
2022/05/02 02:07:43;;;;;;;0.10;0.10;;;;;;;;;;4181480;28;20056;-34
2022/05/02 02:09:44;;;;;;;0.10;0.10;;;;;;;;;;4181059;28;20560;-34
2022/05/02 02:11:45;;;;;;;0.10;0.10;;;;;;;;;;4179823;28;20057;-34
2022/05/02 02:13:46;;;;;;;0.13;0.13;;;;;;;;;;4179530;28;20123;-34
2022/05/02 02:15:48;;;;;;;0.38;0.10;;;;;;;;;;4180980;28;20053;-34
2022/05/02 02:17:49;;;;;;;0.40;0.10;;;;;;;;;;4180412;28;20053;-34
2022/05/02 02:19:50;;;;;;;0.52;0.20;;;;;;;;;;4180715;28;20378;-34
2022/05/02 02:21:51;;;;;;;0.20;0.10;;;;;;;;;;4180995;28;20057;-34
2022/05/02 02:23:53;;;;;;;0.15;0.10;;;;;;;;;;4180736;28;20053;-34
2022/05/02 02:25:55;;;;;;;0.10;0.10;;;;;;;;;;4180909;28;20126;-34
2022/05/02 02:27:56;;;;;;;0.10;0.10;;;;;;;;;;4180897;28;20052;-34
2022/05/02 02:29:57;;;;;;;0.17;0.10;;;;;;;;;;4179517;28;20049;-36
2022/05/02 02:31:58;;;;;;;0.10;0.10;;;;;;;;;;4180397;28;20430;-34
2022/05/02 02:34:00;;;;;;;0.20;0.20;;;;;;;;;;4178459;28;20057;-34
2022/05/02 02:36:01;;;;;;;0.10;0.10;;;;;;;;;;4180303;28;20331;-34
2022/05/02 02:38:02;;;;;;;0.10;0.10;;;;;;;;;;4180306;28;20049;-35
2022/05/02 02:40:04;;;;;;;0.10;0.10;;;;;;;;;;4180648;28;20056;-34
2022/05/02 02:42:06;;;;;;;0.15;0.15;;;;;;;;;;4180659;28;20458;-35
2022/05/02 02:44:07;;;;;;;0.13;0.10;;;;;;;;;;4180751;28;20061;-34
2022/05/02 02:46:08;;;;;;;0.52;0.30;;;;;;;;;;4180604;28;20061;-34
2022/05/02 02:48:10;;;;;;;0.20;0.20;;;;;;;;;;4179962;28;20516;-34
2022/05/02 02:50:11;;;;;;;0.35;0.15;;;;;;;;;;4180441;28;20488;-34
2022/05/02 02:52:12;;;;;;;0.20;0.20;;;;;;;;;;4180401;28;20335;-34
2022/05/02 02:54:14;;;;;;;0.10;0.10;;;;;;;;;;4180281;28;20106;-34
2022/05/02 02:56:15;;;;;;;0.15;0.15;;;;;;;;;;4180332;28;20064;-34
2022/05/02 02:58:16;;;;;;;0.22;0.10;;;;;;;;;;4180285;28;20048;-34
2022/05/02 03:00:18;;;;;;;0.10;0.10;;;;;;;;;;4180239;28;20056;-34
2022/05/02 03:02:19;;;;;;;0.10;0.10;;;;;;;;;;4180218;28;20060;-33
2022/05/02 03:06:40;;;;;;;;;;;;;;;;;;4180830;28;20107;-34
2022/05/02 03:08:41;;;;;;;0.20;0.20;;;;;;;;;;4178795;28;19986;-34
2022/05/02 03:10:42;;;;;;;0.10;0.10;;;;;;;;;;4179969;28;20140;-34
2022/05/02 03:12:44;;;;;;;0.20;0.20;;;;;;;;;;4179895;28;20733;-35
2022/05/02 03:14:45;;;;;;;0.10;0.10;;;;;;;;;;4178720;28;20084;-35
2022/05/02 03:16:46;;;;;;;0.20;0.20;;;;;;;;;;4179989;28;20558;-35
2022/05/02 03:18:48;;;;;;;0.30;0.20;;;;;;;;;;4179389;28;20409;-35
2022/05/02 03:20:49;;;;;;;0.10;0.10;;;;;;;;;;4180123;28;20056;-35
2022/05/02 03:22:50;;;;;;;0.20;0.20;;;;;;;;;;4178521;28;20049;-35
2022/05/02 03:24:51;;;;;;;0.22;0.15;;;;;;;;;;4180164;28;20098;-35
2022/05/02 03:26:52;;;;;;;0.13;0.13;;;;;;;;;;4179921;28;20102;-35
2022/05/02 03:28:53;;;;;;;0.10;0.10;;;;;;;;;;4178660;28;20061;-35
2022/05/02 03:30:54;;;;;;;0.10;0.10;;;;;;;;;;4179756;28;20110;-35
2022/05/02 03:32:56;;;;;;;0.10;0.10;;;;;;;;;;4179132;28;20057;-35
2022/05/02 03:34:57;;;;;;;0.35;0.20;;;;;;;;;;4178731;28;20049;-35
2022/05/02 03:36:58;;;;;;;0.32;0.10;;;;;;;;;;4179555;28;20056;-34
2022/05/02 03:38:59;;;;;;;0.20;0.20;;;;;;;;;;4179846;28;20061;-35
2022/05/02 03:41:00;;;;;;;0.10;0.10;;;;;;;;;;4179625;28;20099;-35
2022/05/02 03:43:01;;;;;;;0.20;0.20;;;;;;;;;;4179499;28;20099;-35
2022/05/02 03:45:04;;;;;;;0.40;0.20;;;;;;;;;;4179491;28;20083;-35
2022/05/02 03:47:05;;;;;;;0.10;0.10;;;;;;;;;;4179765;28;20110;-34
2022/05/02 03:49:06;;;;;;;0.10;0.10;;;;;;;;;;4178854;28;20049;-35
2022/05/02 03:51:07;;;;;;;0.32;0.17;;;;;;;;;;4179539;28;20408;-36
2022/05/02 03:53:09;;;;;;;0.30;0.10;;;;;;;;;;4179352;28;20053;-35
2022/05/02 03:55:11;;;;;;;0.10;0.10;;;;;;;;;;4179345;28;20057;-34
2022/05/02 03:57:12;;;;;;;0.20;0.20;;;;;;;;;;4179465;28;20049;-35
2022/05/02 03:59:13;;;;;;;0.10;0.10;;;;;;;;;;4179472;28;20061;-35
2022/05/02 04:01:14;;;;;;;0.20;0.10;;;;;;;;;;4179480;28;20417;-35
2022/05/02 04:03:15;;;;;;;0.10;0.10;;;;;;;;;;4177460;28;20053;-36
2022/05/02 04:05:17;;;;;;;0.70;0.20;;;;;;;;;;4179238;28;20057;-35
2022/05/02 04:07:18;;;;;;;0.13;0.10;;;;;;;;;;4179185;28;20057;-35
2022/05/02 04:09:19;;;;;;;0.40;0.20;;;;;;;;;;4179184;28;20048;-35
2022/05/02 04:11:21;;;;;;;0.10;0.10;;;;;;;;;;4179264;28;20044;-35
2022/05/02 04:13:22;;;;;;;0.20;0.20;;;;;;;;;;4178071;28;20547;-35
2022/05/02 04:15:23;;;;;;;0.10;0.10;;;;;;;;;;4177776;28;20057;-34
2022/05/02 04:17:24;;;;;;;0.20;0.20;;;;;;;;;;4179089;28;20053;-35
2022/05/02 04:19:25;;;;;;;0.05;0.05;;;;;;;;;;4177407;28;20056;-35
2022/05/02 04:21:26;;;;;;;0.10;0.10;;;;;;;;;;4179011;28;20049;-35
2022/05/02 04:23:28;;;;;;;0.10;0.10;;;;;;;;;;4177949;28;20053;-34
2022/05/02 04:25:29;;;;;;;0.10;0.10;;;;;;;;;;4179070;28;20106;-35
2022/05/02 04:27:31;;;;;;;0.10;0.10;;;;;;;;;;4178882;28;20158;-35
2022/05/02 04:29:32;;;;;;;0.20;0.10;;;;;;;;;;4179409;28;20155;-35
2022/05/02 04:31:33;;;;;;;0.20;0.10;;;;;;;;;;4179053;28;20126;-35
2022/05/02 04:33:34;;;;;;;0.15;0.15;;;;;;;;;;4178696;28;20127;-35
2022/05/02 04:35:35;;;;;;;0.15;0.10;;;;;;;;;;4178993;28;20106;-34
2022/05/02 04:37:37;;;;;;;0.10;0.10;;;;;;;;;;4177783;28;20103;-35
2022/05/02 04:39:39;;;;;;;0.20;0.20;;;;;;;;;;4178916;28;20056;-35
2022/05/02 04:41:40;;;;;;;0.28;0.20;;;;;;;;;;4179103;28;20126;-35
2022/05/02 04:43:42;;;;;;;0.28;0.20;;;;;;;;;;4178832;28;20085;-34
2022/05/02 04:45:43;;;;;;;0.35;0.20;;;;;;;;;;4179072;28;20052;-34
2022/05/02 04:47:44;;;;;;;0.10;0.10;;;;;;;;;;4178434;28;20087;-35
2022/05/02 04:49:45;;;;;;;0.15;0.10;;;;;;;;;;4179108;28;20106;-34
2022/05/02 04:51:46;;;;;;;0.20;0.20;;;;;;;;;;4178937;28;20178;-35
2022/05/02 04:53:47;;;;;;;0.75;0.20;;;;;;;;;;4179043;28;20106;-35
2022/05/02 04:55:48;;;;;;;0.30;0.20;;;;;;;;;;4178745;28;20450;-35
2022/05/02 04:57:50;;;;;;;0.30;0.20;;;;;;;;;;4178920;28;20099;-34
2022/05/02 04:59:51;;;;;;;0.30;0.20;;;;;;;;;;4178859;28;20049;-35
2022/05/02 05:01:52;;;;;;;0.10;0.10;;;;;;;;;;4162041;28;20408;-35
2022/05/02 05:03:53;;;;;;;0.68;0.30;;;;;;;;;;4160061;28;20062;-35
2022/05/02 05:05:55;;;;;;;0.20;0.20;;;;;;;;;;4160416;28;20080;-35
2022/05/02 05:07:56;;;;;;;0.10;0.10;;;;;;;;;;4174798;28;20354;-34
2022/05/02 05:09:58;;;;;;;0.10;0.10;;;;;;;;;;4176681;28;20049;-35
2022/05/02 05:12:05;;;;;;;0.10;0.10;;;;;;;;;;4177149;28;20056;-34
2022/05/02 05:17:17;;;;;;;0.10;0.10;;;;;;;;;;4174290;28;20048;-34
2022/05/02 05:20:04;;;;;;;0.57;0.20;;;;;;;;;;4173769;28;20087;-34
2022/05/02 05:22:22;;;;;;;0.50;0.30;;;;;;;;;;4181477;28;20208;-34
2022/05/02 05:24:57;;;;;;;0.10;0.10;;;;;;;;;;4177607;28;20127;-35
2022/05/02 05:27:20;;;;;;;0.47;0.20;;;;;;;;;;4181901;28;20053;-35
2022/05/02 05:29:37;;;;;;;0.73;0.30;;;;;;;;;;4180506;28;20123;-35
2022/05/02 05:31:59;;;;;;;0.35;0.30;;;;;;;;;;4171214;28;20503;-35
2022/05/02 05:34:07;;;;;;;0.38;0.20;;;;;;;;;;4173352;28;20422;-34
2022/05/02 05:36:43;;;;;;;0.43;0.30;;;;;;;;;;4181008;28;20111;-36
2022/05/02 05:38:47;;;;;;;0.17;0.10;;;;;;;;;;4175843;28;20374;-34
2022/05/02 05:40:57;;;;;;;1.30;0.20;;;;;;;;;;4176248;28;20045;-35
2022/05/02 05:43:13;;;;;;;0.68;0.30;;;;;;;;;;4166460;28;20049;-34
2022/05/02 05:45:19;;;;;;;1.75;0.30;;;;;;;;;;4177525;28;20057;-34
2022/05/02 05:47:43;;;;;;;0.40;0.20;;;;;;;;;;4172444;28;20493;-35
2022/05/02 05:50:15;;;;;;;1.55;0.50;;;;;;;;;;4165176;28;20079;-34
2022/05/02 05:52:39;;;;;;;2.53;0.30;;;;;;;;;;4170352;28;21579;-34
2022/05/02 05:55:03;;;;;;;0.47;0.20;;;;;;;;;;4167573;28;20079;-33
2022/05/02 05:57:25;;;;;;;1.33;0.40;;;;;;;;;;4168533;28;20324;-33
2022/05/02 05:59:48;;;;;;;3.63;0.30;;;;;;;;;;4159783;28;20373;-34
2022/05/02 06:01:56;;;;;;;1.63;0.22;;;;;;;;;;4149085;28;20053;-33
2022/05/02 06:04:07;;;;;;;1.27;0.30;;;;;;;;;;4162154;28;20080;-33
2022/05/02 06:06:09;;;;;;;0.85;0.30;;;;;;;;;;4156407;28;20056;-33
2022/05/02 06:08:14;;;;;;;0.32;0.30;;;;;;;;;;4156405;28;20061;-33
2022/05/02 06:10:16;;;;;;;0.70;0.30;;;;;;;;;;4162810;28;20500;-33
2022/05/02 06:12:18;;;;;;;1.40;0.30;;;;;;;;;;4163246;28;20099;-33
2022/05/02 06:14:21;;;;;;;1.85;0.40;;;;;;;;;;4162359;28;20063;-33
2022/05/02 06:18:47;;;;;;;2.30;0.40;;;;;;;;;;4151674;28;20057;-32
2022/05/02 06:20:51;;;;;;;1.48;0.17;;;;;;;;;;4146502;28;20048;-33
2022/05/02 06:22:53;;;;;;;0.75;0.38;;;;;;;;;;4154205;28;20111;-32
2022/05/02 06:24:55;;;;;;;4.05;0.30;;;;;;;;;;4138264;28;20068;-33
2022/05/02 06:26:58;;;;;;;1.05;0.40;;;;;;;;;;4148161;28;20083;-42
2022/05/02 06:28:59;;;;;;;0.20;0.20;;;;;;;;;;4147214;28;20110;-42
2022/05/02 06:31:00;;;;;;;5.25;0.38;;;;;;;;;;4134282;28;20135;-41
2022/05/02 06:33:06;;;;;;;0.90;0.47;;;;;;;;;;4152764;28;20549;-42
2022/05/02 06:35:07;;;;;;;2.55;0.32;;;;;;;;;;4155413;28;20936;-41
2022/05/02 06:37:24;;;;;;;1.08;0.30;;;;;;;;;;4151253;28;20851;-42
2022/05/02 06:39:31;;;;;;;4.75;0.30;;;;;;;;;;4165271;28;20586;-40
2022/05/02 06:41:51;;;;;;;2.10;0.40;;;;;;;;;;4155742;28;20061;-42
2022/05/02 06:43:55;;;;;;;;;;;;;;;;;;4154360;28;20122;-41
2022/05/02 06:46:11;;;;;;;0.70;0.22;;;;;;;;;;4159407;28;20883;-42
2022/05/02 06:48:19;;;;;;;0.68;0.40;;;;;;;;;;4152301;28;20064;-42
2022/05/02 06:50:23;;;;;;;0.60;0.20;;;;;;;;;;4146802;28;20154;-42
2022/05/02 06:52:27;;;;;;;1.80;0.20;;;;;;;;;;4153656;28;20059;-41
2022/05/02 06:54:45;;;;;;;0.20;0.20;;;;;;;;;;4140104;28;20064;-42
2022/05/02 06:57:03;;;;;;;0.20;0.20;;;;;;;;;;4155338;28;20065;-43
2022/05/02 06:59:14;;;;;;;0.80;0.30;;;;;;;;;;4157254;28;20121;-42
2022/05/02 07:01:33;;;;;;;1.35;0.50;;;;;;;;;;4145076;28;20091;-42
2022/05/02 07:03:37;;;;;;;2.53;0.40;;;;;;;;;;4119387;28;20060;-42
2022/05/02 07:05:57;;;;;;;1.17;0.25;;;;;;;;;;4122153;28;20695;-42
2022/05/02 07:08:04;;;;;;;3.15;0.57;;;;;;;;;;4121988;28;20180;-40
2022/05/02 07:10:08;;;;;;;1.15;0.20;;;;;;;;;;4115565;28;20211;-42
2022/05/02 07:12:18;;;;;;;0.50;0.20;;;;;;;;;;4136998;28;20123;-42
2022/05/02 07:14:42;;;;;;;2.85;0.57;;;;;;;;;;4148845;28;20597;-39
2022/05/02 07:16:51;;;;;;;1.35;0.32;;;;;;;;;;4138654;28;20057;-44
2022/05/02 07:19:34;;;;;;;3.67;0.22;;;;;;;;;;4139594;28;20061;-44
2022/05/02 07:21:43;;;;;;;3.38;0.32;;;;;;;;;;4140406;28;20433;-44
2022/05/02 07:24:09;;;;;;;2.72;0.25;;;;;;;;;;4147475;28;20057;-42
2022/05/02 07:26:14;;;;;;;0.93;0.20;;;;;;;;;;4140162;28;20147;-43
2022/05/02 07:28:35;;;;;;;0.52;0.20;;;;;;;;;;4148220;28;20068;-43
2022/05/02 07:30:38;;;;;;;2.38;0.30;;;;;;;;;;4146542;28;20053;-44
2022/05/02 07:32:39;;;;;;;3.13;0.35;;;;;;;;;;4152701;28;20052;-44
2022/05/02 07:34:41;;;;;;;0.50;0.20;;;;;;;;;;4139940;28;20122;-43
2022/05/02 07:36:43;;;;;;;0.20;0.20;;;;;;;;;;4148757;28;20139;-43
2022/05/02 07:38:47;;;;;;;0.40;0.20;;;;;;;;;;4140729;28;20069;-43
2022/05/02 07:43:09;;;;;;;0.47;0.28;;;;;;;;;;4150300;28;20056;-43
2022/05/02 07:45:10;;;;;;;0.40;0.15;;;;;;;;;;4141049;28;20159;-43
2022/05/02 07:47:14;;;;;;;2.95;0.20;;;;;;;;;;4146979;28;20246;-43
2022/05/02 07:49:22;;;;;;;0.43;0.20;;;;;;;;;;4143070;28;20056;-42
2022/05/02 07:51:24;;;;;;;0.88;0.25;;;;;;;;;;4134147;28;20059;-44
2022/05/02 07:53:28;;;;;;;1.75;0.20;;;;;;;;;;4140124;28;20057;-44
2022/05/02 07:55:30;;;;;;;3.78;0.30;;;;;;;;;;4136279;28;20080;-43
2022/05/02 07:57:33;;;;;;;0.65;0.30;;;;;;;;;;4140172;28;21383;-43
2022/05/02 07:59:38;;;;;;;3.33;0.30;;;;;;;;;;4140016;28;20114;-45
2022/05/02 08:01:39;;;;;;;1.10;0.45;;;;;;;;;;4133869;28;20115;-45
2022/05/02 08:03:41;;;;;;;0.63;0.10;;;;;;;;;;4140835;28;20063;-44
2022/05/02 08:05:44;;;;;;;1.13;0.52;;;;;;;;;;4130051;28;20061;-44
2022/05/02 08:07:45;;;;;;;2.90;0.20;;;;;;;;;;4130732;28;20053;-44
2022/05/02 08:10:07;;;;;;;0.38;0.20;;;;;;;;;;4138640;28;20146;-43
2022/05/02 08:12:17;;;;;;;2.92;0.40;;;;;;;;;;4141712;28;20104;-43
2022/05/02 08:14:48;;;;;;;0.75;0.20;;;;;;;;;;4137186;28;20777;-44
2022/05/02 08:17:02;;;;;;;0.65;0.20;;;;;;;;;;4125787;28;20079;-43
2022/05/02 08:19:24;;;;;;;4.47;0.35;;;;;;;;;;4141411;28;20190;-43
2022/05/02 08:21:43;;;;;;;0.65;0.20;;;;;;;;;;4142907;28;20056;-44
2022/05/02 08:29:19;;;;;;;0.73;0.30;;;;;;;;;;4141339;28;20614;-44
2022/05/02 08:31:25;;;;;;;0.30;0.15;;;;;;;;;;4139761;28;21201;-43
2022/05/02 08:33:29;;;;;;;1.02;0.20;;;;;;;;;;4141907;28;20478;-44
2022/05/02 08:35:50;;;;;;;0.65;0.30;;;;;;;;;;4145466;28;20100;-44
2022/05/02 08:38:07;;;;;;;0.73;0.20;;;;;;;;;;4149319;28;21647;-44
2022/05/02 08:40:18;;;;;;;0.95;0.20;;;;;;;;;;4137299;28;20778;-44
2022/05/02 08:42:51;;;;;;;0.85;0.30;;;;;;;;;;4143844;28;20063;-44
2022/05/02 08:44:57;;;;;;;0.65;0.40;;;;;;;;;;4142823;28;20504;-43
2022/05/02 08:46:58;;;;;;;0.85;0.20;;;;;;;;;;4132772;28;20057;-44
2022/05/02 08:49:37;;;;;;;0.88;0.20;;;;;;;;;;4149929;28;21716;-43
2022/05/02 08:51:58;;;;;;;0.57;0.30;;;;;;;;;;4143258;28;20064;-44
2022/05/02 08:54:10;;;;;;;1.90;0.30;;;;;;;;;;4136816;28;20178;-45
2022/05/02 08:56:31;;;;;;;1.50;0.52;;;;;;;;;;4134757;28;20072;-44
2022/05/02 08:58:54;;;;;;;2.40;0.35;;;;;;;;;;4136962;28;20093;-44
2022/05/02 09:01:07;;;;;;;4.93;1.15;;;;;;;;;;4128003;28;20095;-44
2022/05/02 09:03:17;;;;;;;2.90;0.22;;;;;;;;;;4126929;28;20065;-44
2022/05/02 09:05:38;;;;;;;1.77;0.20;;;;;;;;;;4140035;28;20057;-44
2022/05/02 09:07:39;;;;;;;1.52;0.40;;;;;;;;;;4158267;28;20107;-44
2022/05/02 09:10:05;;;;;;;0.98;0.20;;;;;;;;;;4140134;28;20061;-44
2022/05/02 09:12:24;;;;;;;0.45;0.20;;;;;;;;;;4139116;28;20063;-44
2022/05/02 09:14:55;;;;;;;1.20;0.43;;;;;;;;;;4141764;28;20069;-44
2022/05/02 09:17:34;;;;;;;2.92;0.47;;;;;;;;;;4131524;28;20115;-44
2022/05/02 09:20:05;;;;;;;1.52;0.32;;;;;;;;;;4131530;28;20056;-44
2022/05/02 09:22:14;;;;;;;1.52;0.35;;;;;;;;;;4144926;28;20062;-44
2022/05/02 09:24:36;;;;;;;3.55;0.30;;;;;;;;;;4146240;28;20793;-45
2022/05/02 09:27:06;;;;;;;2.17;0.47;;;;;;;;;;4150294;28;22166;-46
2022/05/02 09:29:21;;;;;;;0.40;0.15;;;;;;;;;;4143048;28;20697;-45
2022/05/02 09:31:47;;;;;;;0.50;0.20;;;;;;;;;;4135803;28;20071;-44
2022/05/02 09:33:55;;;;;;;1.80;0.38;;;;;;;;;;4126825;28;21015;-43
2022/05/02 09:36:22;;;;;;;3.70;0.40;;;;;;;;;;4132446;28;20063;-44
2022/05/02 09:38:25;;;;;;;2.35;0.22;;;;;;;;;;4109727;28;20220;-45
2022/05/02 09:40:35;;;;;;;4.53;0.40;;;;;;;;;;4138983;28;20102;-46
2022/05/02 09:43:05;;;;;;;0.30;0.13;;;;;;;;;;4140723;28;20534;-45
2022/05/02 09:50:12;;;;;;;3.58;0.32;;;;;;;;;;4162656;28;20057;-48
2022/05/02 09:52:15;;;;;;;2.50;0.40;;;;;;;;;;4167861;28;20064;-39
2022/05/02 09:57:33;;;;;;;1.33;0.30;;;;;;;;;;4144754;28;20840;-39
2022/05/02 09:59:38;;;;;;;0.70;0.28;;;;;;;;;;4123153;28;20143;-37
2022/05/02 10:01:44;;;;;;;2.13;0.30;;;;;;;;;;4142032;28;20823;-37
2022/05/02 10:04:18;;;;;;;0.43;0.30;;;;;;;;;;4157159;28;20498;-37
2022/05/02 10:06:33;;;;;;;0.40;0.25;;;;;;;;;;4145030;28;21047;-40
2022/05/02 10:08:47;;;;;;;0.20;0.20;;;;;;;;;;4157425;28;20060;-39
2022/05/02 10:11:09;;;;;;;2.38;0.25;;;;;;;;;;4161849;28;20052;-39
2022/05/02 10:13:54;;;;;;;0.77;0.20;;;;;;;;;;4163190;28;20061;-39
2022/05/02 10:16:10;;;;;;;0.77;0.30;;;;;;;;;;4164871;28;20080;-39
2022/05/02 10:18:14;;;;;;;1.45;0.28;;;;;;;;;;4161003;28;20134;-40
2022/05/02 10:20:16;;;;;;;3.95;0.50;;;;;;;;;;4163073;28;20146;-38
2022/05/02 10:22:26;;;;;;;1.77;0.43;;;;;;;;;;4155808;28;20057;-38
2022/05/02 10:25:00;;;;;;;0.90;0.30;;;;;;;;;;4149185;28;20057;-38
2022/05/02 10:27:19;;;;;;;1.67;0.52;;;;;;;;;;4157706;28;20428;-37
2022/05/02 10:29:42;;;;;;;3.53;0.30;;;;;;;;;;4164892;28;20102;-37
2022/05/02 10:31:50;;;;;;;2.53;0.40;;;;;;;;;;4145742;28;21538;-37
2022/05/02 10:33:52;;;;;;;1.73;0.52;;;;;;;;;;4145010;28;20123;-37
2022/05/02 10:35:56;;;;;;;0.40;0.30;;;;;;;;;;4147390;28;20059;-35
2022/05/02 10:38:02;;;;;;;1.15;0.30;;;;;;;;;;4139488;28;20136;-35
2022/05/02 10:40:08;;;;;;;1.33;0.55;;;;;;;;;;4149460;28;20056;-37
2022/05/02 10:42:10;;;;;;;3.72;0.35;;;;;;;;;;4159081;28;20127;-37
2022/05/02 10:44:15;;;;;;;1.95;0.20;;;;;;;;;;4160596;28;20061;-37
2022/05/02 10:46:18;;;;;;;0.45;0.25;;;;;;;;;;4154181;28;20119;-35
2022/05/02 10:48:19;;;;;;;2.50;0.40;;;;;;;;;;4151478;28;20098;-35
2022/05/02 10:50:29;;;;;;;0.40;0.20;;;;;;;;;;4150684;28;20146;-35
2022/05/02 10:52:45;;;;;;;1.20;0.40;;;;;;;;;;4159830;28;20061;-35
2022/05/02 10:54:55;;;;;;;2.53;0.20;;;;;;;;;;4157233;28;20061;-36
2022/05/02 10:57:00;;;;;;;;;;;;;;;;;;4143502;28;20061;-39
2022/05/02 10:59:03;;;;;;;3.50;0.30;;;;;;;;;;4151678;28;19979;-35
2022/05/02 11:01:07;;;;;;;1.13;0.40;;;;;;;;;;4148539;28;20056;-36
2022/05/02 11:03:13;;;;;;;3.75;0.30;;;;;;;;;;4143839;28;20151;-36
2022/05/02 11:05:15;;;;;;;0.40;0.30;;;;;;;;;;4151621;28;20448;-38
2022/05/02 11:07:35;;;;;;;4.47;0.20;;;;;;;;;;4157631;28;20186;-39
2022/05/02 11:09:57;;;;;;;2.22;0.22;;;;;;;;;;4158111;28;20320;-38
2022/05/02 11:12:01;;;;;;;1.25;0.35;;;;;;;;;;4156782;28;20053;-40
2022/05/02 11:14:25;;;;;;;3.95;0.85;;;;;;;;;;4155599;28;20064;-38
2022/05/02 11:16:33;;;;;;;1.42;0.28;;;;;;;;;;4150715;28;20159;-39
2022/05/02 11:21:55;;;;;;;1.75;0.63;;;;;;;;;;4157431;28;20061;-36
2022/05/02 11:24:16;;;;;;;2.40;0.30;;;;;;;;;;4157219;28;21754;-38
2022/05/02 11:26:22;;;;;;;2.58;0.40;;;;;;;;;;4142010;28;20052;-35
2022/05/02 11:28:39;;;;;;;0.80;0.28;;;;;;;;;;4152303;28;20779;-35
2022/05/02 11:30:52;;;;;;;1.70;0.47;;;;;;;;;;4147286;28;20053;-36
2022/05/02 11:33:00;;;;;;;0.95;0.25;;;;;;;;;;4141402;28;20112;-37
2022/05/02 11:35:11;;;;;;;1.02;0.25;;;;;;;;;;4153896;28;20154;-37
2022/05/02 11:37:22;;;;;;;1.10;0.30;;;;;;;;;;4154533;28;20061;-36
2022/05/02 11:39:39;;;;;;;0.20;0.10;;;;;;;;;;4156407;28;20053;-35
2022/05/02 11:41:45;;;;;;;1.95;0.20;;;;;;;;;;4153668;28;20111;-35
2022/05/02 11:43:47;;;;;;;3.28;0.60;;;;;;;;;;4154731;28;20080;-34
2022/05/02 11:46:18;;;;;;;0.20;0.20;;;;;;;;;;4140095;28;20111;-37
2022/05/02 11:48:19;;;;;;;1.08;0.30;;;;;;;;;;4151695;28;20109;-35
2022/05/02 11:50:25;;;;;;;0.95;0.20;;;;;;;;;;4146974;28;20052;-35
2022/05/02 11:52:32;;;;;;;2.10;0.20;;;;;;;;;;4149686;28;20063;-35
2022/05/02 11:54:36;;;;;;;5.15;0.40;;;;;;;;;;4147461;28;20488;-34
2022/05/02 11:56:41;;;;;;;0.95;0.20;;;;;;;;;;4152216;28;20061;-37
2022/05/02 11:58:46;;;;;;;1.02;0.30;;;;;;;;;;4137638;28;20126;-37
2022/05/02 12:00:53;;;;;;;3.55;0.30;;;;;;;;;;4134009;28;20523;-36
2022/05/02 12:03:03;;;;;;;1.77;0.30;;;;;;;;;;4143749;28;20138;-34
2022/05/02 12:05:17;;;;;;;0.70;0.30;;;;;;;;;;4145716;28;20117;-35
2022/05/02 12:07:20;;;;;;;2.17;0.20;;;;;;;;;;4157759;28;20048;-35
2022/05/02 12:09:25;;;;;;;4.32;0.32;;;;;;;;;;4144222;28;20056;-35
2022/05/02 12:11:26;;;;;;;1.88;0.30;;;;;;;;;;4148027;28;20106;-35
2022/05/02 12:13:32;;;;;;;3.30;0.28;;;;;;;;;;4136855;28;20108;-34
2022/05/02 12:16:02;;;;;;;4.40;0.60;;;;;;;;;;4143547;28;20104;-37
2022/05/02 12:18:04;;;;;;;0.95;0.20;;;;;;;;;;4145271;28;20061;-40
2022/05/02 12:20:31;;;;;;;2.05;0.40;;;;;;;;;;4152923;28;20087;-37
2022/05/02 12:22:34;;;;;;;2.33;0.47;;;;;;;;;;4146668;28;20512;-38
2022/05/02 12:24:36;;;;;;;0.45;0.30;;;;;;;;;;4151935;28;20215;-38
2022/05/02 12:26:45;;;;;;;1.85;0.40;;;;;;;;;;4153279;28;20056;-41
2022/05/02 12:28:49;;;;;;;1.75;0.30;;;;;;;;;;4147157;28;20060;-40
2022/05/02 12:30:56;;;;;;;3.63;0.38;;;;;;;;;;4142468;28;20745;-38
2022/05/02 12:33:05;;;;;;;1.30;0.38;;;;;;;;;;4142386;28;20523;-41
2022/05/02 12:35:07;;;;;;;1.98;0.30;;;;;;;;;;4151264;28;20064;-40
2022/05/02 12:37:20;;;;;;;3.25;0.60;;;;;;;;;;4149970;28;20547;-40
2022/05/02 12:39:31;;;;;;;3.25;0.38;;;;;;;;;;4154554;28;20679;-40
2022/05/02 12:41:45;;;;;;;1.45;0.40;;;;;;;;;;4153196;28;20048;-40
2022/05/02 12:43:51;;;;;;;3.08;0.32;;;;;;;;;;4145787;28;20266;-41
2022/05/02 12:45:53;;;;;;;4.22;0.30;;;;;;;;;;4149639;28;20131;-40
2022/05/02 12:48:08;;;;;;;0.75;0.22;;;;;;;;;;4154969;28;20121;-41
2022/05/02 12:50:25;;;;;;;2.22;0.20;;;;;;;;;;4155528;28;20057;-40
2022/05/02 12:52:28;;;;;;;0.40;0.20;;;;;;;;;;4152568;28;20567;-40
2022/05/02 12:54:31;;;;;;;1.13;0.30;;;;;;;;;;4161392;28;20389;-41
2022/05/02 12:56:46;;;;;;;3.47;0.55;;;;;;;;;;4152158;28;20059;-41
2022/05/02 13:01:08;;;;;;;;;;;;;;;;;;4143061;28;20049;-40
2022/05/02 13:03:12;;;;;;;1.80;0.22;;;;;;;;;;4154149;28;20019;-40
2022/05/02 13:05:19;;;;;;;2.10;0.40;;;;;;;;;;4164059;28;20110;-40
2022/05/02 13:07:21;;;;;;;2.22;0.20;;;;;;;;;;4155109;28;20449;-43
2022/05/02 13:09:23;;;;;;;1.77;0.20;;;;;;;;;;4158232;28;20057;-40
2022/05/02 13:11:35;;;;;;;0.40;0.10;;;;;;;;;;4155366;28;20059;-41
2022/05/02 13:13:58;;;;;;;0.88;0.20;;;;;;;;;;4161472;28;20131;-41
2022/05/02 13:16:12;;;;;;;1.35;0.20;;;;;;;;;;4160494;28;20057;-41
2022/05/02 13:18:18;;;;;;;0.57;0.20;;;;;;;;;;4156042;28;20065;-41